»·PEaware :: N4VY KSEE-KIFP

N4VY :: KSEE-KIFP

FLIGHT INFORMATION

Flight Status: Arrived
Operator: Privately registered:
United States
More flights under this callsign
Pilot: Jeremy H. (30118)
Aircraft: CESSNA 172 SKYHAWK
(C172)
More flights by this aircraft type
Origin: KSEE Gillespie
United States
Destination: KIFP Laughlin/Bullhead Intl
United States
More flights between these airports :: More routes between these airports
Route: +EED
File this flight plan on PilotEdge
Remarks:
Altitude:
(Current/Filed)
9,000ft
Speed:
(Current/Filed)
125kts
Departed: 01-Aug-20 05:26 PM
Arrived: 01-Aug-20 06:53 PM
Distance/Time
Traveled:
184nm/1:27
Distance/Time
To Go:
Arrived

Flight Plot

Page will automatically refresh every two minutes.


Map Options




Map Legend


Flown Route
Filed Route
Departure Airport
Arrival Airport
Navaid (VOR, NDB)
Fix

Horizontal Profiles

Position Reports

Time Latitude Longitude Heading Altitude Ground
Speed
01-Aug-20 17:03 32.824926 -116.968925 14 381ft 0kts
01-Aug-20 17:04 32.824926 -116.968925 14 381ft 0kts
01-Aug-20 17:05 32.824926 -116.968925 14 381ft 0kts
01-Aug-20 17:06 32.824926 -116.968925 14 381ft 0kts
01-Aug-20 17:07 32.824926 -116.968925 14 381ft 0kts
01-Aug-20 17:08 32.824926 -116.968925 14 381ft 0kts
01-Aug-20 17:09 32.824926 -116.968925 14 381ft 0kts
01-Aug-20 17:10 32.824926 -116.968925 14 381ft 0kts
01-Aug-20 17:11 32.824926 -116.968925 14 381ft 0kts
01-Aug-20 17:12 32.824926 -116.968925 14 381ft 0kts
01-Aug-20 17:13 32.824926 -116.968925 14 381ft 0kts
01-Aug-20 17:14 32.824926 -116.968925 14 381ft 0kts
01-Aug-20 17:15 32.824926 -116.968925 14 381ft 0kts
01-Aug-20 17:16 32.824926 -116.968925 14 381ft 0kts
01-Aug-20 17:17 32.824926 -116.968925 14 381ft 0kts
01-Aug-20 17:18 32.824926 -116.968925 14 381ft 0kts
01-Aug-20 17:19 32.824926 -116.968925 14 381ft 0kts
01-Aug-20 17:20 32.824926 -116.968925 14 381ft 0kts
01-Aug-20 17:21 32.824717 -116.968182 121 381ft 9kts
01-Aug-20 17:22 32.824759 -116.964857 83 388ft 8kts
01-Aug-20 17:23 32.825991 -116.964450 323 388ft 0kts
01-Aug-20 17:24 32.825991 -116.964450 323 388ft 0kts
01-Aug-20 17:25 32.831538 -116.972068 308 631ft 107kts
01-Aug-20 17:26 32.866915 -116.972089 346 1625ft 127kts
01-Aug-20 17:27 32.901274 -116.970589 346 2700ft 118kts
01-Aug-20 17:28 32.933281 -116.968385 346 3523ft 120kts
01-Aug-20 17:29 32.968423 -116.965577 17 4279ft 139kts
01-Aug-20 17:30 32.982569 -116.930683 93 5023ft 122kts
01-Aug-20 17:31 32.998172 -116.892616 77 5787ft 126kts
01-Aug-20 17:32 33.013537 -116.859931 86 6629ft 102kts
01-Aug-20 17:33 33.027604 -116.829196 81 7199ft 111kts
01-Aug-20 17:34 33.043387 -116.795428 79 7761ft 121kts
01-Aug-20 17:35 33.060128 -116.759511 78 8317ft 127kts
01-Aug-20 17:36 33.077362 -116.722681 78 8956ft 119kts
01-Aug-20 17:37 33.096338 -116.681303 73 8996ft 160kts
01-Aug-20 17:38 33.118372 -116.634045 73 8982ft 164kts
01-Aug-20 17:39 33.141530 -116.587070 51 8982ft 171kts
01-Aug-20 17:40 33.180691 -116.553002 36 8983ft 174kts
01-Aug-20 17:41 33.220764 -116.520039 36 8984ft 175kts
01-Aug-20 17:42 33.262342 -116.485618 36 8985ft 175kts
01-Aug-20 17:43 33.342001 -116.419365 36 9007ft 175kts
01-Aug-20 17:44 33.422379 -116.352397 36 9009ft 175kts
01-Aug-20 17:45 33.502294 -116.285665 37 9001ft 174kts
01-Aug-20 17:47 33.582158 -116.218821 37 9004ft 175kts
01-Aug-20 17:48 33.662200 -116.151705 37 9007ft 175kts
01-Aug-20 17:49 33.742049 -116.084536 37 9009ft 175kts
01-Aug-20 17:50 33.822323 -116.016883 37 9012ft 176kts
01-Aug-20 17:51 33.902919 -115.948801 37 9014ft 176kts
01-Aug-20 17:52 33.981960 -115.881856 38 8997ft 168kts
01-Aug-20 17:53 34.050111 -115.824250 39 8973ft 119kts
01-Aug-20 17:54 34.111518 -115.796880 40 5990ft 108kts
01-Aug-20 17:55 34.133682 -115.774373 72 8265ft 114kts
01-Aug-20 17:56 34.176545 -115.723321 352 6936ft 114kts
01-Aug-20 17:57 34.223459 -115.712094 37 8007ft 129kts
01-Aug-20 17:58 34.228742 -115.685978 134 8378ft 62kts
01-Aug-20 17:59 34.228128 -115.670772 83 7872ft 65kts
01-Aug-20 18:00 34.237527 -115.651348 64 7090ft 74kts
01-Aug-20 18:00 34.244407 -115.640296 68 6879ft 79kts
01-Aug-20 18:02 34.266624 -115.612158 31 7189ft 111kts
01-Aug-20 18:03 34.298947 -115.582920 30 8016ft 98kts
01-Aug-20 18:04 34.344161 -115.555764 358 8907ft 89kts
01-Aug-20 18:04 34.386454 -115.534645 24 9114ft 121kts
01-Aug-20 18:06 34.460359 -115.485272 13 9037ft 133kts
01-Aug-20 18:07 34.530173 -115.452597 15 9036ft 134kts
01-Aug-20 18:07 34.573405 -115.431904 14 9022ft 136kts
01-Aug-20 18:08 34.608956 -115.414892 15 8978ft 138kts
01-Aug-20 18:09 34.644706 -115.397733 15 8939ft 139kts
01-Aug-20 18:10 34.680777 -115.380417 15 8905ft 140kts
01-Aug-20 18:11 34.717120 -115.362961 15 8876ft 140kts
01-Aug-20 18:12 34.753346 -115.345560 16 8867ft 140kts
01-Aug-20 18:13 34.787237 -115.322886 48 8868ft 143kts
01-Aug-20 18:14 34.803519 -115.278930 69 8867ft 143kts
01-Aug-20 18:15 34.808844 -115.232355 102 8867ft 140kts
01-Aug-20 18:16 34.805625 -115.194328 98 8867ft 141kts
01-Aug-20 18:17 34.803960 -115.167634 95 8979ft 135kts
01-Aug-20 18:18 34.801753 -115.126517 95 9028ft 140kts
01-Aug-20 18:19 34.799254 -115.078431 94 9028ft 143kts
01-Aug-20 18:20 34.796746 -115.030085 94 9028ft 143kts
01-Aug-20 18:21 34.794218 -114.981641 94 9011ft 144kts
01-Aug-20 18:22 34.792425 -114.948139 95 9008ft 144kts
01-Aug-20 18:23 34.789775 -114.899411 95 8934ft 149kts
01-Aug-20 18:24 34.786885 -114.845993 94 8445ft 161kts
01-Aug-20 18:25 34.783931 -114.791406 94 7950ft 162kts
01-Aug-20 18:26 34.780947 -114.736700 94 7457ft 162kts
01-Aug-20 18:27 34.777929 -114.681848 94 6965ft 162kts
01-Aug-20 18:28 34.774890 -114.627072 94 6474ft 162kts
01-Aug-20 18:29 34.771870 -114.573014 94 6138ft 158kts
01-Aug-20 18:30 34.768846 -114.520763 95 6018ft 151kts
01-Aug-20 18:31 34.762215 -114.471741 135 6018ft 143kts
01-Aug-20 18:32 34.734339 -114.437440 159 6015ft 138kts
01-Aug-20 18:33 34.717238 -114.449495 314 6013ft 86kts
01-Aug-20 18:34 34.735747 -114.466992 324 6016ft 89kts
01-Aug-20 18:35 34.761738 -114.471550 336 6019ft 93kts
01-Aug-20 18:36 34.787175 -114.478840 336 5882ft 93kts
01-Aug-20 18:37 34.812914 -114.485420 340 5424ft 96kts
01-Aug-20 18:38 34.838288 -114.490898 340 5046ft 87kts
01-Aug-20 18:39 34.860892 -114.494217 339 5002ft 82kts
01-Aug-20 18:40 34.884002 -114.498800 338 5001ft 86kts
01-Aug-20 18:41 34.907433 -114.503627 338 5000ft 87kts
01-Aug-20 18:42 34.930756 -114.508453 338 4999ft 84kts
01-Aug-20 18:43 34.955891 -114.515209 336 4202ft 116kts
01-Aug-20 18:44 34.987399 -114.525361 336 3218ft 118kts
01-Aug-20 18:45 35.014425 -114.531685 342 3107ft 88kts
01-Aug-20 18:46 35.038331 -114.539011 332 2944ft 95kts
01-Aug-20 18:47 35.062479 -114.548544 337 2672ft 85kts
01-Aug-20 18:48 35.085388 -114.547927 321 2421ft 73kts
01-Aug-20 18:49 35.103766 -114.553964 327 1818ft 73kts
01-Aug-20 18:50 35.123689 -114.556430 336 1393ft 70kts
01-Aug-20 18:51 35.143675 -114.558449 341 873ft 74kts
01-Aug-20 18:52 35.151324 -114.558084 84 705ft 0kts
01-Aug-20 18:53 35.151324 -114.558084 84 705ft 0kts
01-Aug-20 18:54 35.153566 -114.557865 355 705ft 18kts
01-Aug-20 18:55 35.156456 -114.556342 9 705ft 15kts

Navigation Log

Ident Type
Flight plan parsing failed, navigation log unavailable